createdAt,value
2024-02-19T00:00:06.322Z,96169.61
2024-02-19T00:03:03.424Z,96165.34
2024-02-19T00:05:31.320Z,96161.51
2024-02-19T00:07:59.465Z,96162.13
2024-02-19T00:10:27.082Z,96162.38
2024-02-19T00:12:54.739Z,96154.74
2024-02-19T00:15:23.397Z,96155.86
2024-02-19T00:17:51.511Z,96150.06
2024-02-19T00:20:19.348Z,96147.77
2024-02-19T00:22:47.524Z,96149.44
2024-02-19T00:25:16.720Z,96151.15
2024-02-19T00:27:46.289Z,96151.73
2024-02-19T00:30:17.480Z,96147.02
2024-02-19T00:32:45.708Z,96145.80
2024-02-19T00:35:13.320Z,96148.25
2024-02-19T00:37:40.873Z,96151.20
2024-02-19T00:40:10.517Z,96148.05
2024-02-19T00:42:38.761Z,96152.73
2024-02-19T00:45:06.933Z,96149.17
2024-02-19T00:47:34.696Z,96151.35
2024-02-19T00:50:03.242Z,96154.48
2024-02-19T00:52:31.174Z,96146.63
2024-02-19T00:54:59.302Z,96141.88
2024-02-19T00:57:26.781Z,96141.20
2024-02-19T00:59:55.367Z,96139.22
2024-02-19T01:02:23.900Z,96132.30
2024-02-19T01:04:55.795Z,96133.97
2024-02-19T01:07:25.575Z,96127.77
2024-02-19T01:09:53.534Z,96128.29
2024-02-19T01:12:21.739Z,96123.90
2024-02-19T01:14:49.657Z,96123.27
2024-02-19T01:17:18.672Z,96117.91
2024-02-19T01:19:47.418Z,96115.79
2024-02-19T01:22:15.972Z,96114.42
2024-02-19T01:24:43.967Z,96110.95
2024-02-19T01:27:12.661Z,96114.69
2024-02-19T01:29:40.225Z,96113.65
2024-02-19T01:32:07.999Z,96113.09
2024-02-19T01:34:37.569Z,96111.27
2024-02-19T01:37:05.433Z,96110.86
2024-02-19T01:39:34.986Z,96106.17
2024-02-19T01:42:04.171Z,96101.65
2024-02-19T01:44:32.683Z,96097.90
2024-02-19T01:47:00.979Z,96096.08
2024-02-19T01:49:29.463Z,96089.09
2024-02-19T01:51:57.542Z,96089.56
2024-02-19T01:54:25.391Z,96088.47
2024-02-19T01:56:53.703Z,96087.36
2024-02-19T01:59:23.194Z,96082.48
2024-02-19T02:01:51.217Z,96078.47
2024-02-19T02:04:19.620Z,96078.66
2024-02-19T02:06:48.567Z,96075.84
2024-02-19T02:09:16.874Z,96076.70
2024-02-19T02:11:44.200Z,96077.21
2024-02-19T02:14:13.076Z,96074.08
2024-02-19T02:16:40.701Z,96071.97
2024-02-19T02:19:13.016Z,96070.62
2024-02-19T02:21:42.166Z,96072.65
2024-02-19T02:24:10.276Z,96069.17
2024-02-19T02:26:42.476Z,96068.75
2024-02-19T02:29:10.266Z,96073.59
2024-02-19T02:31:39.392Z,96072.89
2024-02-19T02:34:07.357Z,96072.80
2024-02-19T02:36:36.318Z,96071.41
2024-02-19T02:39:05.178Z,96063.86
2024-02-19T02:41:33.310Z,96053.75
2024-02-19T02:44:01.292Z,96048.63
2024-02-19T02:46:29.687Z,96045.36
2024-02-19T02:48:57.908Z,96041.91
2024-02-19T02:51:26.540Z,96041.14
2024-02-19T02:53:55.194Z,96043.17
2024-02-19T02:56:24.787Z,96041.60
2024-02-19T02:58:53.785Z,96041.45
2024-02-19T03:01:27.076Z,96038.86
2024-02-19T03:03:55.224Z,96039.92
2024-02-19T03:06:23.173Z,96040.61
2024-02-19T03:08:50.899Z,96035.81
2024-02-19T03:11:18.760Z,96038.48
2024-02-19T03:13:45.649Z,96038.06
2024-02-19T03:16:18.247Z,96046.80
2024-02-19T03:18:49.362Z,96048.56
2024-02-19T03:21:18.554Z,96048.86
2024-02-19T03:24:11.580Z,96051.89
2024-02-19T03:26:41.646Z,96051.10
2024-02-19T03:29:12.401Z,96052.30
2024-02-19T03:31:41.979Z,96054.30
2024-02-19T03:34:10.121Z,96052.54
2024-02-19T03:36:37.523Z,96049.86
2024-02-19T03:39:05.082Z,96045.43
2024-02-19T03:41:34.439Z,96049.96
2024-02-19T03:44:02.792Z,96042.35
2024-02-19T03:46:30.950Z,96035.44
2024-02-19T03:48:59.239Z,96030.66
2024-02-19T03:51:28.720Z,96023.38
2024-02-19T03:53:56.649Z,96016.69
2024-02-19T03:56:25.362Z,96013.80
2024-02-19T03:58:53.908Z,96014.52
2024-02-19T04:01:21.981Z,96015.85
2024-02-19T04:03:50.144Z,96011.02
2024-02-19T04:06:17.633Z,96008.04
2024-02-19T04:08:45.047Z,96008.98
2024-02-19T04:11:17.085Z,96007.11
2024-02-19T04:13:45.461Z,96004.54
2024-02-19T04:16:14.211Z,96003.20
2024-02-19T04:18:42.099Z,96005.50
2024-02-19T04:21:09.609Z,96003.70
2024-02-19T04:23:38.842Z,96004.05
2024-02-19T04:26:06.859Z,96004.85
2024-02-19T04:28:34.810Z,96002.94
2024-02-19T04:31:03.053Z,95997.81
2024-02-19T04:33:31.951Z,95996.27
2024-02-19T04:36:00.145Z,95995.46
2024-02-19T04:38:28.022Z,96001.58
2024-02-19T04:40:56.833Z,96002.83
2024-02-19T04:43:24.652Z,96003.44
2024-02-19T04:45:54.879Z,95993.11
2024-02-19T04:48:22.961Z,95993.69
2024-02-19T04:50:50.636Z,95989.81
2024-02-19T04:53:20.116Z,95994.83
2024-02-19T04:55:49.666Z,95994.95
2024-02-19T04:58:17.818Z,95996.64
2024-02-19T05:00:47.177Z,95992.17
2024-02-19T05:03:17.916Z,95992.24
2024-02-19T05:05:45.778Z,96001.50
2024-02-19T05:08:13.381Z,95999.69
2024-02-19T05:10:41.636Z,95997.70
2024-02-19T05:13:09.582Z,96005.44
2024-02-19T05:15:39.005Z,95999.74
2024-02-19T05:18:07.016Z,95999.61
2024-02-19T05:20:35.851Z,95995.15
2024-02-19T05:23:05.924Z,95996.92
2024-02-19T05:25:33.724Z,95995.65
2024-02-19T05:28:03.596Z,95999.52
2024-02-19T05:30:32.063Z,95998.48
2024-02-19T05:32:59.256Z,95993.40
2024-02-19T05:35:28.730Z,95995.88
2024-02-19T05:37:58.317Z,95996.63
2024-02-19T05:40:27.761Z,95993.05
2024-02-19T05:42:55.770Z,95989.42
2024-02-19T05:45:24.120Z,95989.73
2024-02-19T05:47:52.429Z,95989.08
2024-02-19T05:50:20.181Z,95988.15
2024-02-19T05:52:48.497Z,95983.77
2024-02-19T05:55:17.904Z,95985.63
2024-02-19T05:57:46.060Z,95983.63
2024-02-19T06:00:14.463Z,95983.83
2024-02-19T06:02:43.579Z,95985.17
2024-02-19T06:05:12.278Z,95987.67
2024-02-19T06:07:42.297Z,95987.36
2024-02-19T06:10:11.571Z,95985.59
2024-02-19T06:12:40.165Z,95983.94
2024-02-19T06:15:09.414Z,95983.57
2024-02-19T06:17:37.192Z,95982.89
2024-02-19T06:20:05.612Z,95985.34
2024-02-19T06:22:33.581Z,95985.39
2024-02-19T06:25:01.621Z,95986.25
2024-02-19T06:27:29.910Z,95986.58
2024-02-19T06:29:58.487Z,95986.39
2024-02-19T06:32:26.614Z,95989.95
2024-02-19T06:34:55.969Z,95988.64
2024-02-19T06:37:24.822Z,95987.62
2024-02-19T06:39:52.842Z,95989.56
2024-02-19T06:42:21.993Z,95992.23
2024-02-19T06:44:49.234Z,95994.01
2024-02-19T06:47:17.082Z,95990.26
2024-02-19T06:49:45.521Z,95997.44
2024-02-19T06:52:23.405Z,95999.88
2024-02-19T06:54:52.592Z,96001.83
2024-02-19T06:57:23.995Z,96001.58
2024-02-19T07:00:10.598Z,96000.89
2024-02-19T07:02:40.815Z,96000.85
2024-02-19T07:05:09.808Z,96000.02
2024-02-19T07:07:39.476Z,96004.05
2024-02-19T07:10:12.478Z,96002.70
2024-02-19T07:13:05.139Z,96004.22
2024-02-19T07:15:40.461Z,95998.40
2024-02-19T07:18:18.714Z,96001.79
2024-02-19T07:20:59.689Z,96000.31
2024-02-19T07:23:35.158Z,95999.15
2024-02-19T07:26:30.398Z,95997.16
2024-02-19T07:29:02.243Z,95996.98
2024-02-19T07:31:31.000Z,95996.73
2024-02-19T07:34:01.447Z,95995.02
2024-02-19T07:36:29.488Z,95995.19
2024-02-19T07:38:58.072Z,95998.92
2024-02-19T07:41:30.914Z,95999.31
2024-02-19T07:43:58.921Z,95997.64
2024-02-19T07:46:26.747Z,95999.71
2024-02-19T07:48:54.870Z,96001.66
2024-02-19T07:51:24.017Z,96000.26
2024-02-19T07:53:53.332Z,96002.18
2024-02-19T07:56:28.188Z,96001.23
2024-02-19T07:58:58.050Z,96000.77
2024-02-19T08:01:27.053Z,95999.05
2024-02-19T08:03:56.114Z,96004.93
2024-02-19T08:06:25.616Z,95999.23
2024-02-19T08:08:54.073Z,96000.92
2024-02-19T08:11:31.470Z,95996.37
2024-02-19T08:13:58.848Z,95993.06
2024-02-19T08:16:28.765Z,95995.54
2024-02-19T08:18:56.406Z,95993.52
2024-02-19T08:21:34.407Z,95990.99
2024-02-19T08:24:11.550Z,95990.01
2024-02-19T08:26:51.799Z,95988.48
2024-02-19T08:29:23.085Z,95987.40
2024-02-19T08:31:53.981Z,95991.80
2024-02-19T08:34:55.900Z,95991.62
2024-02-19T08:37:30.267Z,95987.60
2024-02-19T08:40:41.038Z,95985.45
2024-02-19T08:43:17.420Z,95987.83
2024-02-19T08:45:51.142Z,95992.37
2024-02-19T08:48:23.500Z,95988.98
2024-02-19T08:50:59.824Z,95982.58
2024-02-19T08:53:30.220Z,95986.08
2024-02-19T08:55:59.542Z,95985.55
2024-02-19T08:58:31.999Z,95985.45
2024-02-19T09:01:02.078Z,95983.22
2024-02-19T09:03:31.699Z,95982.06
2024-02-19T09:06:17.493Z,95980.70
2024-02-19T09:08:52.833Z,95976.75
2024-02-19T09:11:21.589Z,95976.63
2024-02-19T09:13:50.339Z,95975.17
2024-02-19T09:16:18.548Z,95974.36
2024-02-19T09:18:48.981Z,95974.31
2024-02-19T09:21:16.411Z,95969.48
2024-02-19T09:23:49.379Z,95968.27
2024-02-19T09:26:22.184Z,95965.34
2024-02-19T09:28:52.389Z,95968.06
2024-02-19T09:31:25.763Z,95966.38
2024-02-19T09:34:00.780Z,95964.27
2024-02-19T09:36:38.005Z,95964.92
2024-02-19T09:39:07.458Z,95961.95
2024-02-19T09:41:50.496Z,95956.93
2024-02-19T09:44:20.198Z,95957.73
2024-02-19T09:46:59.198Z,95957.14
2024-02-19T09:49:29.288Z,95956.15
2024-02-19T09:52:00.609Z,95948.33
2024-02-19T09:54:29.413Z,95947.69
2024-02-19T09:57:06.080Z,95943.86
2024-02-19T09:59:34.726Z,95940.21
2024-02-19T10:02:02.441Z,95932.86
2024-02-19T10:04:35.390Z,95931.73
2024-02-19T10:07:09.169Z,95931.23
2024-02-19T10:09:37.427Z,95928.58
2024-02-19T10:12:10.038Z,95930.34
2024-02-19T10:14:42.701Z,95926.56
2024-02-19T10:17:13.068Z,95920.55
2024-02-19T10:19:43.809Z,95912.89
2024-02-19T10:22:13.176Z,95914.16
2024-02-19T10:24:45.080Z,95911.29
2024-02-19T10:27:12.675Z,95904.17
2024-02-19T10:29:40.004Z,95902.16
2024-02-19T10:32:07.874Z,95897.27
2024-02-19T10:34:36.318Z,95893.91
2024-02-19T10:37:06.113Z,95893.46
2024-02-19T10:39:35.053Z,95893.84
2024-02-19T10:42:04.911Z,95890.89
2024-02-19T10:44:35.767Z,95882.98
2024-02-19T10:47:04.807Z,95878.92
2024-02-19T10:49:33.647Z,95877.55
2024-02-19T10:52:01.642Z,95871.20
2024-02-19T10:54:32.340Z,95868.58
2024-02-19T10:57:09.975Z,95861.58
2024-02-19T10:59:41.423Z,95857.45
2024-02-19T11:02:24.190Z,95851.75
2024-02-19T11:04:55.284Z,95848.38
2024-02-19T11:07:34.076Z,95843.27
2024-02-19T11:10:05.255Z,95839.80
2024-02-19T11:12:35.139Z,95840.23
2024-02-19T11:15:15.004Z,95835.73
2024-02-19T11:17:47.510Z,95838.10
2024-02-19T11:20:25.686Z,95834.79
2024-02-19T11:22:59.659Z,95828.91
2024-02-19T11:25:34.022Z,95821.86
2024-02-19T11:28:06.026Z,95816.58
2024-02-19T11:30:37.148Z,95816.39
2024-02-19T11:33:13.523Z,95805.38
2024-02-19T11:35:47.608Z,95802.06
2024-02-19T11:38:33.707Z,95799.11
2024-02-19T11:41:07.821Z,95797.20
2024-02-19T11:43:39.644Z,95795.39
2024-02-19T11:46:11.090Z,95787.21
2024-02-19T11:48:42.602Z,95782.73
2024-02-19T11:51:12.941Z,95783.88
2024-02-19T11:53:44.286Z,95780.19
2024-02-19T11:56:20.402Z,95781.08
2024-02-19T11:58:55.891Z,95775.50
2024-02-19T12:01:28.115Z,95770.74
2024-02-19T12:03:58.477Z,95769.05
2024-02-19T12:06:30.786Z,95768.13
2024-02-19T12:09:05.359Z,95764.55
2024-02-19T12:11:42.437Z,95761.27
2024-02-19T12:14:18.183Z,95759.42
2024-02-19T12:16:48.020Z,95755.33
2024-02-19T12:19:18.737Z,95755.08
2024-02-19T12:21:56.404Z,95753.02
2024-02-19T12:24:28.033Z,95751.70
2024-02-19T12:26:57.622Z,95752.01
2024-02-19T12:29:27.744Z,95753.88
2024-02-19T12:31:57.689Z,95752.53
2024-02-19T12:34:29.335Z,95754.45
2024-02-19T12:37:00.629Z,95754.53
2024-02-19T12:39:32.650Z,95746.44
2024-02-19T12:42:03.782Z,95744.17
2024-02-19T12:44:37.687Z,95740.70
2024-02-19T12:47:07.421Z,95743.91
2024-02-19T12:49:40.668Z,95740.23
2024-02-19T12:52:15.711Z,95737.48
2024-02-19T12:54:48.976Z,95735.03
2024-02-19T12:57:27.427Z,95741.77
2024-02-19T13:00:09.394Z,95735.95
2024-02-19T13:02:38.617Z,95729.98
2024-02-19T13:05:15.631Z,95729.73
2024-02-19T13:07:50.944Z,95728.53
2024-02-19T13:10:25.028Z,95716.23
2024-02-19T13:12:58.020Z,95724.78
2024-02-19T13:15:31.137Z,95719.80
2024-02-19T13:18:01.146Z,95713.94
2024-02-19T13:20:37.842Z,95713.17
2024-02-19T13:23:09.404Z,95714.05
2024-02-19T13:25:41.604Z,95721.14
2024-02-19T13:28:13.964Z,95712.73
2024-02-19T13:30:44.215Z,95715.05
2024-02-19T13:33:19.755Z,95713.14
2024-02-19T13:35:52.831Z,95713.27
2024-02-19T13:38:30.435Z,95712.95
2024-02-19T13:41:03.977Z,95711.13
2024-02-19T13:43:34.058Z,95707.73
2024-02-19T13:46:08.245Z,95705.82
2024-02-19T13:48:37.596Z,95706.56
2024-02-19T13:51:06.860Z,95703.02
2024-02-19T13:53:38.718Z,95701.48
2024-02-19T13:56:08.773Z,95702.88
2024-02-19T13:58:37.626Z,95701.59
2024-02-19T14:01:06.790Z,95692.57
2024-02-19T14:03:42.856Z,95697.58
2024-02-19T14:06:16.636Z,95692.29
2024-02-19T14:08:50.782Z,95696.85
2024-02-19T14:11:27.801Z,95700.70
2024-02-19T14:14:02.338Z,95701.91
2024-02-19T14:16:41.762Z,95696.14
2024-02-19T14:19:13.561Z,95700.48
2024-02-19T14:21:44.981Z,95701.11
2024-02-19T14:24:17.249Z,95705.70
2024-02-19T14:26:47.043Z,95704.35
2024-02-19T14:29:17.838Z,95702.49
2024-02-19T14:31:53.124Z,95705.98
2024-02-19T14:34:27.119Z,95707.11
2024-02-19T14:37:02.584Z,95706.34
2024-02-19T14:39:33.664Z,95709.64
2024-02-19T14:42:10.771Z,95714.34
2024-02-19T14:44:43.390Z,95712.88
2024-02-19T14:47:43.496Z,95710.63
2024-02-19T14:50:13.779Z,95711.66
2024-02-19T14:52:52.474Z,95711.75
2024-02-19T14:55:23.546Z,95712.50
2024-02-19T14:57:56.529Z,95713.84
2024-02-19T15:00:24.133Z,95717.67
2024-02-19T15:02:56.050Z,95713.53
2024-02-19T15:05:25.993Z,95710.34
2024-02-19T15:07:55.801Z,95715.91
2024-02-19T15:10:27.533Z,95715.83
2024-02-19T15:12:56.342Z,95718.74
2024-02-19T15:15:25.006Z,95714.94
2024-02-19T15:17:53.009Z,95720.98
2024-02-19T15:20:22.372Z,95721.58
2024-02-19T15:22:50.798Z,95717.98
2024-02-19T15:25:19.635Z,95717.31
2024-02-19T15:27:48.452Z,95716.32
2024-02-19T15:30:17.018Z,95714.36
2024-02-19T15:32:44.874Z,95716.71
2024-02-19T15:35:13.142Z,95716.89
2024-02-19T15:37:41.171Z,95721.03
2024-02-19T15:40:10.159Z,95718.35
2024-02-19T15:42:38.034Z,95718.05
2024-02-19T15:45:07.230Z,95720.23
2024-02-19T15:47:35.135Z,95719.64
2024-02-19T15:50:06.808Z,95721.20
2024-02-19T15:52:35.949Z,95724.27
2024-02-19T15:55:05.077Z,95728.35
2024-02-19T15:57:32.759Z,95729.10
2024-02-19T16:00:02.469Z,95730.54
2024-02-19T16:02:34.293Z,95733.20
2024-02-19T16:05:01.860Z,95734.14
2024-02-19T16:07:30.520Z,95735.48
2024-02-19T16:09:59.205Z,95735.23
2024-02-19T16:12:28.336Z,95736.02
2024-02-19T16:14:56.755Z,95737.55
2024-02-19T16:17:24.788Z,95739.30
2024-02-19T16:19:54.232Z,95741.58
2024-02-19T16:22:23.174Z,95742.05
2024-02-19T16:24:51.071Z,95744.85
2024-02-19T16:27:18.968Z,95744.47
2024-02-19T16:29:46.302Z,95743.88
2024-02-19T16:32:17.839Z,95741.70
2024-02-19T16:34:45.251Z,95738.88
2024-02-19T16:37:13.632Z,95738.70
2024-02-19T16:39:46.685Z,95738.84
2024-02-19T16:42:14.065Z,95740.77
2024-02-19T16:44:42.036Z,95746.30
2024-02-19T16:47:10.056Z,95745.98
2024-02-19T16:49:37.594Z,95747.46
2024-02-19T16:52:05.101Z,95748.13
2024-02-19T16:54:32.992Z,95749.64
2024-02-19T16:57:01.705Z,95752.42
2024-02-19T16:59:29.508Z,95750.52
2024-02-19T17:01:57.696Z,95753.39
2024-02-19T17:04:25.474Z,95751.49
2024-02-19T17:06:55.287Z,95746.96
2024-02-19T17:09:23.656Z,95747.29
2024-02-19T17:11:51.329Z,95751.23
2024-02-19T17:14:19.941Z,95756.41
2024-02-19T17:16:52.036Z,95756.83
2024-02-19T17:19:21.362Z,95763.13
2024-02-19T17:21:50.427Z,95760.59
2024-02-19T17:24:17.584Z,95764.48
2024-02-19T17:26:46.228Z,95760.04
2024-02-19T17:29:14.127Z,95757.67
2024-02-19T17:31:43.269Z,95758.77
2024-02-19T17:34:12.318Z,95758.73
2024-02-19T17:36:42.484Z,95759.80
2024-02-19T17:39:12.526Z,95758.45
2024-02-19T17:41:41.295Z,95757.98
2024-02-19T17:44:11.361Z,95757.40
2024-02-19T17:46:38.464Z,95754.67
2024-02-19T17:49:11.171Z,95753.63
2024-02-19T17:51:38.356Z,95756.52
2024-02-19T17:54:09.898Z,95756.39
2024-02-19T17:56:40.834Z,95748.76
2024-02-19T17:59:10.823Z,95751.06
2024-02-19T18:01:39.661Z,95746.77
2024-02-19T18:04:08.149Z,95744.30
2024-02-19T18:06:37.233Z,95750.73
2024-02-19T18:09:05.027Z,95750.11
2024-02-19T18:11:34.035Z,95751.42
2024-02-19T18:14:01.690Z,95750.73
2024-02-19T18:16:30.719Z,95746.50
2024-02-19T18:19:00.558Z,95749.42
2024-02-19T18:21:29.194Z,95748.00
2024-02-19T18:23:58.763Z,95747.02
2024-02-19T18:26:28.358Z,95751.00
2024-02-19T18:28:58.162Z,95755.39
2024-02-19T18:31:29.280Z,95757.81
2024-02-19T18:33:58.077Z,95754.61
2024-02-19T18:36:27.106Z,95752.95
2024-02-19T18:38:55.006Z,95749.86
2024-02-19T18:41:24.792Z,95752.33
2024-02-19T18:43:52.823Z,95754.83
2024-02-19T18:46:22.494Z,95758.14
2024-02-19T18:49:01.675Z,95754.47
2024-02-19T18:51:29.580Z,95753.36
2024-02-19T18:53:57.164Z,95753.46
2024-02-19T18:56:26.772Z,95747.44
2024-02-19T18:58:55.173Z,95748.33
2024-02-19T19:01:22.968Z,95745.68
2024-02-19T19:03:50.808Z,95747.26
2024-02-19T19:06:18.486Z,95746.19
2024-02-19T19:08:46.696Z,95740.93
2024-02-19T19:11:14.785Z,95737.91
2024-02-19T19:13:44.573Z,95737.22
2024-02-19T19:16:12.918Z,95734.77
2024-02-19T19:18:41.133Z,95733.86
2024-02-19T19:21:09.409Z,95735.48
2024-02-19T19:23:37.675Z,95734.52
2024-02-19T19:26:06.188Z,95730.88
2024-02-19T19:28:33.936Z,95727.81
2024-02-19T19:31:02.625Z,95726.10
2024-02-19T19:33:31.055Z,95728.08
2024-02-19T19:35:59.428Z,95726.29
2024-02-19T19:38:26.878Z,95727.78
2024-02-19T19:40:57.846Z,95729.41
2024-02-19T19:43:26.984Z,95726.92
2024-02-19T19:45:57.210Z,95724.48
2024-02-19T19:48:28.978Z,95723.71
2024-02-19T19:50:57.691Z,95718.42
2024-02-19T19:53:27.064Z,95722.57
2024-02-19T19:55:56.276Z,95725.08
2024-02-19T19:58:31.868Z,95727.17
2024-02-19T20:01:00.659Z,95727.30
2024-02-19T20:03:29.296Z,95724.89
2024-02-19T20:05:59.407Z,95727.00
2024-02-19T20:08:27.361Z,95723.52
2024-02-19T20:10:56.318Z,95719.95
2024-02-19T20:13:24.151Z,95724.76
2024-02-19T20:15:53.768Z,95725.17
2024-02-19T20:18:29.062Z,95728.30
2024-02-19T20:20:57.230Z,95730.17
2024-02-19T20:23:26.986Z,95730.86
2024-02-19T20:25:57.682Z,95728.00
2024-02-19T20:28:25.258Z,95729.42
2024-02-19T20:30:54.613Z,95732.77
2024-02-19T20:33:22.900Z,95734.42
2024-02-19T20:35:50.376Z,95734.94
2024-02-19T20:38:18.261Z,95731.91
2024-02-19T20:40:45.810Z,95736.75
2024-02-19T20:43:13.457Z,95734.88
2024-02-19T20:45:42.116Z,95732.05
2024-02-19T20:48:10.905Z,95729.90
2024-02-19T20:50:39.564Z,95736.14
2024-02-19T20:53:10.158Z,95735.46
2024-02-19T20:55:38.072Z,95732.86
2024-02-19T20:58:07.483Z,95734.50
2024-02-19T21:00:36.148Z,95732.83
2024-02-19T21:03:04.013Z,95733.44
2024-02-19T21:05:32.873Z,95730.23
2024-02-19T21:08:00.851Z,95731.23
2024-02-19T21:10:28.899Z,95735.73
2024-02-19T21:12:59.739Z,95738.14
2024-02-19T21:15:28.105Z,95735.96
2024-02-19T21:17:56.011Z,95736.57
2024-02-19T21:20:24.063Z,95739.34
2024-02-19T21:22:52.289Z,95738.81
2024-02-19T21:25:20.325Z,95734.20
2024-02-19T21:27:49.318Z,95731.71
2024-02-19T21:30:16.542Z,95730.52
2024-02-19T21:32:46.764Z,95731.91
2024-02-19T21:35:18.326Z,95735.45
2024-02-19T21:37:48.387Z,95728.86
2024-02-19T21:40:17.894Z,95731.30
2024-02-19T21:42:45.182Z,95729.86
2024-02-19T21:45:14.564Z,95734.60
2024-02-19T21:47:42.789Z,95733.23
2024-02-19T21:50:11.505Z,95732.69
2024-02-19T21:52:40.794Z,95735.83
2024-02-19T21:55:09.399Z,95737.27
2024-02-19T21:57:38.014Z,95737.38
2024-02-19T22:00:09.052Z,95732.19
2024-02-19T22:02:36.608Z,95727.62
2024-02-19T22:05:05.736Z,95733.34
2024-02-19T22:07:34.725Z,95732.29
2024-02-19T22:10:03.439Z,95728.94
2024-02-19T22:12:32.963Z,95724.89
2024-02-19T22:15:01.966Z,95725.53
2024-02-19T22:17:30.377Z,95725.63
2024-02-19T22:19:58.658Z,95723.28
2024-02-19T22:22:27.696Z,95721.73
2024-02-19T22:24:55.986Z,95719.27
2024-02-19T22:27:23.877Z,95715.23
2024-02-19T22:29:51.764Z,95716.61
2024-02-19T22:32:20.359Z,95714.43
2024-02-19T22:34:47.991Z,95715.40
2024-02-19T22:37:16.822Z,95714.23
2024-02-19T22:39:45.209Z,95714.13
2024-02-19T22:42:14.329Z,95709.81
2024-02-19T22:44:43.785Z,95709.84
2024-02-19T22:47:11.865Z,95715.45
2024-02-19T22:49:40.356Z,95709.02
2024-02-19T22:52:10.026Z,95710.33
2024-02-19T22:54:44.141Z,95708.68
2024-02-19T22:57:12.303Z,95709.13
2024-02-19T22:59:50.933Z,95707.68
2024-02-19T23:02:19.297Z,95704.09
2024-02-19T23:04:48.554Z,95704.30
2024-02-19T23:07:18.023Z,95709.08
2024-02-19T23:09:48.537Z,95704.44
2024-02-19T23:12:16.897Z,95704.71
2024-02-19T23:14:44.861Z,95706.66
2024-02-19T23:17:12.833Z,95705.27
2024-02-19T23:19:40.414Z,95702.65
2024-02-19T23:22:08.350Z,95705.66
2024-02-19T23:24:36.486Z,95705.05
2024-02-19T23:27:05.192Z,95701.09
2024-02-19T23:29:34.024Z,95701.98
2024-02-19T23:32:01.429Z,95703.40
2024-02-19T23:34:30.921Z,95698.05
2024-02-19T23:37:01.213Z,95699.75
2024-02-19T23:39:28.911Z,95698.06
2024-02-19T23:41:57.710Z,95695.99
2024-02-19T23:44:27.073Z,95701.93
2024-02-19T23:46:54.664Z,95705.71
2024-02-19T23:49:23.163Z,95698.51
2024-02-19T23:51:51.865Z,95698.69
2024-02-19T23:54:21.326Z,95699.35
2024-02-19T23:56:48.909Z,95698.97
2024-02-19T23:59:16.321Z,95698.05
